Terminal Aerodrome Forecast
Issued by NWS

Current Version | Previous Version | Text Only | Print | Product List | Glossary Off
Versions: 1 2 3 4 5 6 7 8 9 10 11 12 13

000
FTUS44 KSJT 261735
TAFJCT
TAF
KJCT 261735Z 2618/2718 17016G24KT P6SM SCT060
     FM262200 17012G20KT P6SM SCT060
     FM270200 15010KT P6SM VCTS BKN050CB
      TEMPO 2705/2709 3SM -TSRA BKN035CB
     FM271000 16010KT P6SM BKN012=

USA.gov is the U.S. government's official web portal to all federal, state and local government web resources and services.